Time;durP1;ratioP1;P1;durP2;ratioP2;P2;SDS_P1;SDS_P2;PMS_P1;PMS_P2;Temp;Humidity;BMP_temperature;BMP_pressure;BME280_temperature;BME280_humidity;BME280_pressure;Samples;Min_cycle;Max_cycle;Signal;HPM_P1;HPM_P2
2021/05/12 00:02:09;;;;;;;56.45;39.35;;;;;;;;;;5090674;28;20012;-61
2021/05/12 00:04:34;;;;;;;48.10;35.53;;;;;;;;;;5092728;28;20030;-61
2021/05/12 00:06:59;;;;;;;50.33;36.22;;;;;;;;;;5101622;28;20047;-61
2021/05/12 00:09:24;;;;;;;46.38;34.60;;;;;;;;;;5100503;28;20019;-61
2021/05/12 00:11:49;;;;;;;43.78;35.28;;;;;;;;;;5109486;28;20382;-61
2021/05/12 00:14:15;;;;;;;55.83;39.25;;;;;;;;;;5092600;28;20042;-61
2021/05/12 00:16:41;;;;;;;46.08;35.55;;;;;;;;;;5097667;28;20070;-62
2021/05/12 00:19:06;;;;;;;42.97;33.40;;;;;;;;;;5100524;28;20466;-61
2021/05/12 00:21:49;;;;;;;42.72;33.78;;;;;;;;;;5099012;28;20032;-61
2021/05/12 00:24:14;;;;;;;40.38;32.00;;;;;;;;;;5105986;28;20818;-62
2021/05/12 00:26:41;;;;;;;40.00;31.73;;;;;;;;;;5102282;28;20035;-62
2021/05/12 00:29:13;;;;;;;45.85;34.53;;;;;;;;;;5093068;28;20074;-61
2021/05/12 00:31:39;;;;;;;37.70;30.58;;;;;;;;;;5106740;28;20153;-61
2021/05/12 00:34:04;;;;;;;35.78;29.88;;;;;;;;;;5106508;28;20495;-61
2021/05/12 00:36:29;;;;;;;35.00;30.55;;;;;;;;;;5101227;28;20016;-61
2021/05/12 00:38:57;;;;;;;26.45;20.85;;;;;;;;;;5092572;28;20012;-61
2021/05/12 00:41:22;;;;;;;29.77;24.85;;;;;;;;;;5102967;28;20020;-61
2021/05/12 00:43:47;;;;;;;32.85;25.70;;;;;;;;;;5097106;28;20660;-62
2021/05/12 00:46:12;;;;;;;32.67;28.13;;;;;;;;;;5094911;28;20080;-62
2021/05/12 00:48:39;;;;;;;34.05;28.65;;;;;;;;;;5108784;28;20028;-62
2021/05/12 00:51:04;;;;;;;34.33;28.20;;;;;;;;;;5105460;28;20082;-62
2021/05/12 00:53:29;;;;;;;32.60;28.50;;;;;;;;;;5108086;28;20051;-62
2021/05/12 00:55:55;;;;;;;30.35;24.35;;;;;;;;;;5091230;28;20024;-62
2021/05/12 00:58:20;;;;;;;30.88;26.95;;;;;;;;;;5105072;28;20363;-61
2021/05/12 01:00:45;;;;;;;32.25;28.52;;;;;;;;;;5109558;28;20020;-62
2021/05/12 01:03:11;;;;;;;33.17;27.90;;;;;;;;;;5091996;28;20093;-62
2021/05/12 01:05:36;;;;;;;31.02;27.48;;;;;;;;;;5091219;28;20035;-62
2021/05/12 01:08:01;;;;;;;31.42;28.00;;;;;;;;;;5096377;28;20530;-61
2021/05/12 01:10:27;;;;;;;34.03;29.02;;;;;;;;;;5111035;28;20020;-62
2021/05/12 01:12:53;;;;;;;30.83;27.50;;;;;;;;;;5106798;28;20028;-61
2021/05/12 01:15:18;;;;;;;32.08;28.05;;;;;;;;;;5092573;28;20028;-61
2021/05/12 01:17:44;;;;;;;36.40;29.63;;;;;;;;;;5095253;28;20020;-61
2021/05/12 01:20:11;;;;;;;29.88;25.67;;;;;;;;;;5103983;28;20019;-62
2021/05/12 01:22:37;;;;;;;32.30;27.92;;;;;;;;;;5094474;28;20036;-61
2021/05/12 01:25:03;;;;;;;31.52;26.45;;;;;;;;;;5091066;28;20040;-62
2021/05/12 01:27:29;;;;;;;33.00;28.10;;;;;;;;;;5103039;28;20479;-62
2021/05/12 01:29:55;;;;;;;30.38;26.98;;;;;;;;;;5091166;28;20032;-62
2021/05/12 01:32:21;;;;;;;32.35;26.25;;;;;;;;;;5100315;28;20020;-62
2021/05/12 01:34:46;;;;;;;28.30;25.25;;;;;;;;;;5089640;28;20028;-62
2021/05/12 01:37:11;;;;;;;30.70;26.27;;;;;;;;;;5097819;28;20034;-62
2021/05/12 01:39:37;;;;;;;29.35;25.92;;;;;;;;;;5100440;28;20071;-62
2021/05/12 01:42:02;;;;;;;29.08;25.95;;;;;;;;;;5101781;28;20020;-62
2021/05/12 01:44:27;;;;;;;29.08;25.80;;;;;;;;;;5113399;28;20023;-62
2021/05/12 01:46:52;;;;;;;28.73;24.83;;;;;;;;;;5110677;28;20438;-62
2021/05/12 01:49:18;;;;;;;27.38;24.48;;;;;;;;;;5113897;28;20485;-62
2021/05/12 01:51:43;;;;;;;25.48;22.85;;;;;;;;;;5106645;28;20024;-61
2021/05/12 01:54:09;;;;;;;27.50;24.02;;;;;;;;;;5107738;28;20470;-62
2021/05/12 01:56:38;;;;;;;27.25;23.38;;;;;;;;;;5089422;28;20044;-62
2021/05/12 01:59:05;;;;;;;26.60;23.77;;;;;;;;;;5092938;28;20020;-62
2021/05/12 02:01:30;;;;;;;28.85;25.83;;;;;;;;;;5107368;28;20046;-62
2021/05/12 02:03:55;;;;;;;25.42;22.73;;;;;;;;;;5105276;28;20020;-62
2021/05/12 02:06:20;;;;;;;30.60;27.38;;;;;;;;;;5111088;28;20505;-62
2021/05/12 02:08:46;;;;;;;28.70;25.63;;;;;;;;;;5107499;28;20379;-62
2021/05/12 02:11:11;;;;;;;32.13;27.75;;;;;;;;;;5094428;28;20028;-62
2021/05/12 02:13:36;;;;;;;28.98;25.90;;;;;;;;;;5106509;28;20053;-62
2021/05/12 02:16:05;;;;;;;30.25;25.75;;;;;;;;;;5110648;28;20035;-62
2021/05/12 02:18:30;;;;;;;30.40;25.98;;;;;;;;;;5111838;28;20015;-62
2021/05/12 02:20:56;;;;;;;32.13;27.38;;;;;;;;;;5094892;28;20494;-63
2021/05/12 02:23:23;;;;;;;29.73;26.40;;;;;;;;;;5109408;28;20079;-63
2021/05/12 02:25:48;;;;;;;29.85;26.65;;;;;;;;;;5093243;28;20105;-64
2021/05/12 02:28:13;;;;;;;29.05;25.92;;;;;;;;;;5094643;28;20482;-63
2021/05/12 02:30:39;;;;;;;28.25;24.45;;;;;;;;;;5113873;28;20023;-63
2021/05/12 02:33:05;;;;;;;27.42;24.30;;;;;;;;;;5113515;28;20098;-63
2021/05/12 02:35:31;;;;;;;25.70;21.70;;;;;;;;;;5108571;28;20016;-63
2021/05/12 02:37:56;;;;;;;26.48;22.75;;;;;;;;;;5097110;28;20066;-62
2021/05/12 02:40:22;;;;;;;28.05;24.13;;;;;;;;;;5103055;28;20073;-62
2021/05/12 02:42:48;;;;;;;26.77;22.98;;;;;;;;;;5112314;28;20474;-62
2021/05/12 02:45:14;;;;;;;29.38;24.02;;;;;;;;;;5093657;28;20031;-62
2021/05/12 02:47:39;;;;;;;27.33;23.13;;;;;;;;;;5100242;28;20107;-62
2021/05/12 02:50:07;;;;;;;25.05;22.35;;;;;;;;;;5103578;28;20020;-62
2021/05/12 02:52:32;;;;;;;27.27;23.92;;;;;;;;;;5097522;28;20032;-62
2021/05/12 02:54:58;;;;;;;26.38;23.25;;;;;;;;;;5093021;28;20031;-63
2021/05/12 02:57:23;;;;;;;22.40;19.77;;;;;;;;;;5096434;28;20078;-63
2021/05/12 02:59:49;;;;;;;23.17;20.67;;;;;;;;;;5102427;28;20007;-62
2021/05/12 03:02:15;;;;;;;23.25;20.83;;;;;;;;;;5104364;28;20064;-62
2021/05/12 03:04:40;;;;;;;22.08;18.95;;;;;;;;;;5103877;28;20024;-62
2021/05/12 03:07:05;;;;;;;23.77;20.80;;;;;;;;;;5095241;28;20090;-62
2021/05/12 03:09:31;;;;;;;21.75;19.50;;;;;;;;;;5111651;28;20019;-62
2021/05/12 03:11:56;;;;;;;21.77;19.58;;;;;;;;;;5092347;28;20103;-62
2021/05/12 03:14:22;;;;;;;22.52;20.10;;;;;;;;;;5092544;28;20035;-62
2021/05/12 03:16:47;;;;;;;23.05;20.65;;;;;;;;;;5097470;28;20020;-62
2021/05/12 03:19:13;;;;;;;22.52;20.02;;;;;;;;;;5092648;28;20020;-62
2021/05/12 03:21:38;;;;;;;22.65;19.30;;;;;;;;;;5093353;28;20016;-62
2021/05/12 03:24:04;;;;;;;22.58;20.17;;;;;;;;;;5112032;28;20478;-62
2021/05/12 03:26:29;;;;;;;21.83;19.58;;;;;;;;;;5100763;28;20104;-62
2021/05/12 03:28:55;;;;;;;22.50;19.73;;;;;;;;;;5095296;28;20024;-62
2021/05/12 03:31:20;;;;;;;23.52;20.85;;;;;;;;;;5102851;28;20024;-62
2021/05/12 03:33:46;;;;;;;23.17;19.88;;;;;;;;;;5112605;28;20015;-62
2021/05/12 03:36:12;;;;;;;22.33;20.02;;;;;;;;;;5106348;28;20016;-62
2021/05/12 03:38:37;;;;;;;23.38;20.83;;;;;;;;;;5106193;28;20081;-62
2021/05/12 03:41:03;;;;;;;24.30;20.88;;;;;;;;;;5095157;28;20058;-62
2021/05/12 03:43:29;;;;;;;21.80;19.50;;;;;;;;;;5091786;28;20020;-62
2021/05/12 03:45:54;;;;;;;22.67;19.25;;;;;;;;;;5090765;28;20023;-62
2021/05/12 03:48:20;;;;;;;22.67;20.23;;;;;;;;;;5100052;28;20118;-62
2021/05/12 03:50:45;;;;;;;18.40;16.50;;;;;;;;;;5099139;28;20364;-62
2021/05/12 03:53:10;;;;;;;18.95;17.05;;;;;;;;;;5105376;28;20360;-62
2021/05/12 03:55:36;;;;;;;15.68;13.98;;;;;;;;;;5103908;28;20020;-62
2021/05/12 03:58:01;;;;;;;17.50;15.85;;;;;;;;;;5090781;28;20071;-62
2021/05/12 04:00:27;;;;;;;15.20;13.65;;;;;;;;;;5091350;28;20017;-62
2021/05/12 04:02:52;;;;;;;14.20;12.70;;;;;;;;;;5103064;28;20128;-63
2021/05/12 04:05:18;;;;;;;15.57;13.93;;;;;;;;;;5094035;28;20031;-63
2021/05/12 04:07:43;;;;;;;15.80;14.25;;;;;;;;;;5105211;28;20012;-63
2021/05/12 04:10:09;;;;;;;17.23;15.23;;;;;;;;;;5111431;28;20102;-63
2021/05/12 04:12:34;;;;;;;16.92;15.23;;;;;;;;;;5109856;28;20016;-62
2021/05/12 04:14:59;;;;;;;16.40;14.80;;;;;;;;;;5094914;28;20024;-63
2021/05/12 04:17:26;;;;;;;14.43;13.00;;;;;;;;;;5106433;28;20023;-62
2021/05/12 04:19:52;;;;;;;16.90;15.13;;;;;;;;;;5112106;28;20438;-62
2021/05/12 04:22:17;;;;;;;15.75;14.07;;;;;;;;;;5094205;28;20039;-62
2021/05/12 04:24:42;;;;;;;14.70;13.25;;;;;;;;;;5096603;28;20459;-62
2021/05/12 04:27:08;;;;;;;13.23;11.98;;;;;;;;;;5105620;28;20035;-63
2021/05/12 04:29:35;;;;;;;14.38;12.88;;;;;;;;;;5090657;28;20427;-63
2021/05/12 04:32:01;;;;;;;13.15;11.45;;;;;;;;;;5104649;28;20088;-64
2021/05/12 04:34:26;;;;;;;11.85;10.65;;;;;;;;;;5110645;28;20035;-63
2021/05/12 04:36:51;;;;;;;11.13;10.10;;;;;;;;;;5100000;28;20026;-63
2021/05/12 04:39:16;;;;;;;11.50;10.43;;;;;;;;;;5091630;28;20019;-63
2021/05/12 04:41:42;;;;;;;11.30;10.20;;;;;;;;;;5089960;28;20239;-63
2021/05/12 04:44:07;;;;;;;12.05;10.90;;;;;;;;;;5109255;28;20024;-63
2021/05/12 04:46:32;;;;;;;11.32;10.30;;;;;;;;;;5093835;28;20051;-63
2021/05/12 04:48:58;;;;;;;11.07;9.98;;;;;;;;;;5090033;28;20079;-63
2021/05/12 04:51:23;;;;;;;9.80;8.77;;;;;;;;;;5093344;28;20080;-63
2021/05/12 04:53:49;;;;;;;9.82;8.93;;;;;;;;;;5108538;28;20059;-63
2021/05/12 04:56:15;;;;;;;10.93;9.80;;;;;;;;;;5090444;28;20028;-63
2021/05/12 04:58:40;;;;;;;13.10;10.45;;;;;;;;;;5107951;28;20020;-63
2021/05/12 05:01:06;;;;;;;8.52;7.00;;;;;;;;;;5108764;28;20394;-63
2021/05/12 05:03:31;;;;;;;9.10;8.15;;;;;;;;;;5100019;28;20094;-63
2021/05/12 05:05:57;;;;;;;8.95;8.02;;;;;;;;;;5100144;28;20024;-63
2021/05/12 05:08:24;;;;;;;8.35;7.00;;;;;;;;;;5091648;28;20467;-63
2021/05/12 05:10:50;;;;;;;7.70;6.93;;;;;;;;;;5089996;28;20386;-63
2021/05/12 05:13:15;;;;;;;8.35;7.55;;;;;;;;;;5092535;28;20020;-63
2021/05/12 05:15:41;;;;;;;8.25;7.20;;;;;;;;;;5095685;28;20023;-64
2021/05/12 05:18:06;;;;;;;13.80;10.95;;;;;;;;;;5114814;28;20012;-64
2021/05/12 05:20:33;;;;;;;8.25;7.13;;;;;;;;;;5114676;28;20300;-61
2021/05/12 05:22:58;;;;;;;8.10;6.43;;;;;;;;;;5112888;28;20024;-64
2021/05/12 05:25:23;;;;;;;7.38;6.68;;;;;;;;;;5103749;28;20028;-61
2021/05/12 05:27:48;;;;;;;8.70;7.70;;;;;;;;;;5101365;28;20043;-63
2021/05/12 05:30:14;;;;;;;7.40;6.65;;;;;;;;;;5100609;28;20035;-63
2021/05/12 05:32:39;;;;;;;9.13;8.23;;;;;;;;;;5101295;28;20478;-63
2021/05/12 05:35:06;;;;;;;8.18;7.35;;;;;;;;;;5114683;28;20382;-61
2021/05/12 05:37:31;;;;;;;13.02;9.45;;;;;;;;;;5100360;28;20066;-63
2021/05/12 05:39:56;;;;;;;10.85;9.75;;;;;;;;;;5094842;28;20402;-63
2021/05/12 05:42:22;;;;;;;8.93;8.02;;;;;;;;;;5099848;28;20020;-63
2021/05/12 05:44:48;;;;;;;11.85;10.15;;;;;;;;;;5112561;28;20020;-63
2021/05/12 05:47:13;;;;;;;10.98;9.82;;;;;;;;;;5108570;27;20098;-63
2021/05/12 05:49:39;;;;;;;11.02;9.98;;;;;;;;;;5096634;28;20112;-63
2021/05/12 05:52:04;;;;;;;10.57;9.23;;;;;;;;;;5094119;28;20031;-63
2021/05/12 05:54:30;;;;;;;10.48;9.48;;;;;;;;;;5103003;28;20054;-62
2021/05/12 05:56:55;;;;;;;12.70;10.75;;;;;;;;;;5108665;28;20058;-63
2021/05/12 05:59:20;;;;;;;11.18;9.98;;;;;;;;;;5106208;28;20458;-62
2021/05/12 06:01:46;;;;;;;9.25;8.35;;;;;;;;;;5094735;28;20037;-62
2021/05/12 06:04:11;;;;;;;11.88;10.68;;;;;;;;;;5092457;28;20530;-62
2021/05/12 06:06:36;;;;;;;10.02;9.00;;;;;;;;;;5091093;28;20020;-63
2021/05/12 06:09:02;;;;;;;10.07;8.63;;;;;;;;;;5093938;28;20467;-63
2021/05/12 06:11:27;;;;;;;8.82;7.95;;;;;;;;;;5098711;28;20051;-63
2021/05/12 06:13:52;;;;;;;9.85;8.85;;;;;;;;;;5100295;28;20043;-63
2021/05/12 06:16:18;;;;;;;9.25;8.32;;;;;;;;;;5095779;28;20054;-62
2021/05/12 06:18:47;;;;;;;8.68;7.35;;;;;;;;;;5092192;28;20532;-61
2021/05/12 06:21:12;;;;;;;8.18;7.38;;;;;;;;;;5093645;28;20327;-63
2021/05/12 06:23:41;;;;;;;7.80;7.00;;;;;;;;;;5095477;28;20661;-63
2021/05/12 06:26:14;;;;;;;9.02;7.55;;;;;;;;;;5109385;28;20530;-63
2021/05/12 06:28:43;;;;;;;8.02;7.15;;;;;;;;;;5104782;28;20039;-64
2021/05/12 06:31:09;;;;;;;7.13;6.38;;;;;;;;;;5113385;28;20107;-64
2021/05/12 06:33:35;;;;;;;6.78;6.18;;;;;;;;;;5101679;28;20099;-64
2021/05/12 06:36:00;;;;;;;8.85;7.88;;;;;;;;;;5095870;28;20515;-64
2021/05/12 06:38:27;;;;;;;6.78;6.07;;;;;;;;;;5095213;28;20498;-64
2021/05/12 06:40:52;;;;;;;6.85;6.15;;;;;;;;;;5103179;28;20031;-63
2021/05/12 06:43:17;;;;;;;7.45;6.75;;;;;;;;;;5104080;28;20016;-63
2021/05/12 06:45:42;;;;;;;7.93;6.63;;;;;;;;;;5096033;28;20101;-63
2021/05/12 06:48:08;;;;;;;6.63;6.03;;;;;;;;;;5092562;28;20565;-64
2021/05/12 06:50:33;;;;;;;6.72;6.07;;;;;;;;;;5091642;28;20383;-62
2021/05/12 06:52:58;;;;;;;7.28;6.18;;;;;;;;;;5103191;28;20054;-63
2021/05/12 06:55:24;;;;;;;7.32;6.43;;;;;;;;;;5100912;28;20026;-63
2021/05/12 06:57:50;;;;;;;7.47;6.47;;;;;;;;;;5103543;28;20489;-63
2021/05/12 07:00:15;;;;;;;8.60;6.72;;;;;;;;;;5102747;28;20015;-63
2021/05/12 07:02:41;;;;;;;8.75;6.88;;;;;;;;;;5095921;28;20059;-62
2021/05/12 07:05:07;;;;;;;8.73;7.45;;;;;;;;;;5093351;28;20657;-63
2021/05/12 07:07:32;;;;;;;6.88;6.20;;;;;;;;;;5094997;28;20568;-63
2021/05/12 07:09:57;;;;;;;7.50;6.72;;;;;;;;;;5099868;28;20020;-62
2021/05/12 07:12:22;;;;;;;8.07;7.28;;;;;;;;;;5098994;28;20051;-62
2021/05/12 07:14:48;;;;;;;8.07;7.18;;;;;;;;;;5100464;28;20019;-61
2021/05/12 07:17:13;;;;;;;7.82;7.03;;;;;;;;;;5104331;28;20008;-61
2021/05/12 07:19:39;;;;;;;7.47;6.43;;;;;;;;;;5099978;28;20020;-61
2021/05/12 07:22:04;;;;;;;7.82;6.55;;;;;;;;;;5090602;28;20019;-62
2021/05/12 07:24:29;;;;;;;7.90;7.20;;;;;;;;;;5094440;28;20474;-62
2021/05/12 07:26:54;;;;;;;8.20;7.30;;;;;;;;;;5089749;28;20043;-62
2021/05/12 07:29:20;;;;;;;8.15;6.93;;;;;;;;;;5092141;28;20032;-62
2021/05/12 07:31:46;;;;;;;8.05;7.25;;;;;;;;;;5089953;28;20023;-62
2021/05/12 07:34:11;;;;;;;8.82;7.30;;;;;;;;;;5090283;28;20433;-62
2021/05/12 07:36:37;;;;;;;9.10;7.78;;;;;;;;;;5092594;28;20020;-62
2021/05/12 07:39:03;;;;;;;9.75;8.30;;;;;;;;;;5109856;28;20039;-62
2021/05/12 07:41:29;;;;;;;10.40;9.02;;;;;;;;;;5107669;28;20008;-61
2021/05/12 07:43:54;;;;;;;11.90;9.48;;;;;;;;;;5099367;28;20084;-62
2021/05/12 07:46:19;;;;;;;9.60;7.78;;;;;;;;;;5091886;28;20037;-62
2021/05/12 07:48:44;;;;;;;13.30;9.50;;;;;;;;;;5108754;28;20029;-62
2021/05/12 07:51:10;;;;;;;11.15;9.82;;;;;;;;;;5095672;28;20020;-62
2021/05/12 07:53:35;;;;;;;9.63;7.85;;;;;;;;;;5111001;28;20502;-62
2021/05/12 07:56:00;;;;;;;12.38;10.55;;;;;;;;;;5109929;28;20660;-62
2021/05/12 07:58:25;;;;;;;9.93;8.65;;;;;;;;;;5102875;28;20011;-62
2021/05/12 08:00:52;;;;;;;10.25;8.98;;;;;;;;;;5111036;28;20073;-62
2021/05/12 08:03:17;;;;;;;10.00;8.40;;;;;;;;;;5094244;28;20019;-63
2021/05/12 08:05:42;;;;;;;9.93;8.93;;;;;;;;;;5110115;28;20907;-62
2021/05/12 08:08:09;;;;;;;11.40;9.65;;;;;;;;;;5108147;28;20018;-63
2021/05/12 08:10:34;;;;;;;10.55;9.30;;;;;;;;;;5110649;28;20019;-62
2021/05/12 08:13:01;;;;;;;11.25;9.07;;;;;;;;;;5092972;28;20375;-62
2021/05/12 08:15:26;;;;;;;9.02;8.05;;;;;;;;;;5098431;28;20028;-62
2021/05/12 08:17:52;;;;;;;10.13;8.48;;;;;;;;;;5107665;28;20008;-62
2021/05/12 08:20:18;;;;;;;10.27;9.25;;;;;;;;;;5109446;28;20027;-62
2021/05/12 08:22:43;;;;;;;8.55;7.53;;;;;;;;;;5096427;28;20098;-62
2021/05/12 08:25:09;;;;;;;8.95;7.65;;;;;;;;;;5111491;28;20027;-62
2021/05/12 08:27:34;;;;;;;8.95;8.05;;;;;;;;;;5107416;28;20418;-62
2021/05/12 08:30:02;;;;;;;7.57;6.78;;;;;;;;;;5102417;28;20035;-62
2021/05/12 08:32:27;;;;;;;8.18;6.47;;;;;;;;;;5103927;28;20020;-62
2021/05/12 08:34:55;;;;;;;7.75;6.63;;;;;;;;;;5096369;28;20119;-62
2021/05/12 08:37:20;;;;;;;6.22;5.63;;;;;;;;;;5093550;28;20020;-62
2021/05/12 08:39:45;;;;;;;6.53;5.93;;;;;;;;;;5090073;28;20360;-62
2021/05/12 08:42:11;;;;;;;7.10;6.40;;;;;;;;;;5094083;28;20553;-63
2021/05/12 08:44:37;;;;;;;7.07;6.05;;;;;;;;;;5089563;28;20379;-63
2021/05/12 08:47:02;;;;;;;6.78;6.13;;;;;;;;;;5091610;28;20024;-62
2021/05/12 08:49:28;;;;;;;7.10;6.50;;;;;;;;;;5110800;28;20027;-62
2021/05/12 08:51:54;;;;;;;6.93;6.32;;;;;;;;;;5113417;28;20031;-62
2021/05/12 08:54:19;;;;;;;9.02;8.13;;;;;;;;;;5112406;28;20031;-63
2021/05/12 08:56:44;;;;;;;10.55;9.55;;;;;;;;;;5091564;28;20024;-61
2021/05/12 08:59:09;;;;;;;8.45;7.65;;;;;;;;;;5093614;28;20051;-62
2021/05/12 09:01:35;;;;;;;6.50;5.50;;;;;;;;;;5101348;28;20027;-61
2021/05/12 09:04:01;;;;;;;5.85;5.35;;;;;;;;;;5110055;28;20020;-62
2021/05/12 09:06:26;;;;;;;6.18;5.63;;;;;;;;;;5103760;28;20020;-61
2021/05/12 09:08:52;;;;;;;4.75;4.35;;;;;;;;;;5096078;28;20030;-64
2021/05/12 09:11:17;;;;;;;5.75;5.25;;;;;;;;;;5097983;28;20467;-62
2021/05/12 09:13:47;;;;;;;6.10;5.60;;;;;;;;;;5109171;28;20020;-66
2021/05/12 09:16:19;;;;;;;5.90;5.40;;;;;;;;;;5112754;28;20649;-62
2021/05/12 09:18:44;;;;;;;6.93;6.32;;;;;;;;;;5110834;28;20114;-61
2021/05/12 09:21:10;;;;;;;8.90;8.00;;;;;;;;;;5103443;28;20472;-61
2021/05/12 09:23:39;;;;;;;12.38;11.20;;;;;;;;;;5099634;28;20049;-61
2021/05/12 09:26:09;;;;;;;13.20;11.88;;;;;;;;;;5101591;28;20690;-62
2021/05/12 09:28:35;;;;;;;12.25;11.00;;;;;;;;;;5105924;28;20032;-61
2021/05/12 09:31:05;;;;;;;15.02;13.48;;;;;;;;;;5106416;28;20035;-61
2021/05/12 09:33:32;;;;;;;13.52;12.23;;;;;;;;;;5114112;28;20020;-61
2021/05/12 09:35:58;;;;;;;14.50;13.00;;;;;;;;;;5112536;28;20043;-60
2021/05/12 09:38:24;;;;;;;13.27;11.55;;;;;;;;;;5103499;28;20047;-61
2021/05/12 09:40:59;;;;;;;13.10;11.35;;;;;;;;;;5113229;28;20015;-62
2021/05/12 09:43:28;;;;;;;13.60;11.82;;;;;;;;;;5112885;28;20020;-62
2021/05/12 09:45:53;;;;;;;7.07;6.47;;;;;;;;;;5105958;28;20020;-61
2021/05/12 09:48:18;;;;;;;4.60;4.20;;;;;;;;;;5100167;28;20360;-61
2021/05/12 09:50:44;;;;;;;5.00;4.50;;;;;;;;;;5114588;28;20019;-63
2021/05/12 09:53:12;;;;;;;5.63;5.22;;;;;;;;;;5113086;28;20022;-61
2021/05/12 09:55:37;;;;;;;9.15;5.18;;;;;;;;;;5108456;28;20072;-61
2021/05/12 09:58:09;;;;;;;4.75;4.35;;;;;;;;;;5112729;28;20015;-62
2021/05/12 10:00:35;;;;;;;5.82;5.03;;;;;;;;;;5098424;28;20534;-62
2021/05/12 10:03:03;;;;;;;4.93;4.43;;;;;;;;;;5106009;28;20030;-63
2021/05/12 10:05:48;;;;;;;3.22;2.92;;;;;;;;;;5093489;28;20020;-61
2021/05/12 10:08:18;;;;;;;5.03;4.63;;;;;;;;;;5093973;28;20070;-63
2021/05/12 10:10:44;;;;;;;3.35;3.05;;;;;;;;;;5109969;28;20027;-62
2021/05/12 10:13:09;;;;;;;3.92;2.58;;;;;;;;;;5096562;28;20020;-61
2021/05/12 10:15:34;;;;;;;3.45;3.15;;;;;;;;;;5113212;28;20517;-63
2021/05/12 10:18:00;;;;;;;3.13;2.80;;;;;;;;;;5097608;28;20012;-63
2021/05/12 10:20:26;;;;;;;3.83;3.20;;;;;;;;;;5110591;28;20087;-63
2021/05/12 10:22:52;;;;;;;4.30;3.67;;;;;;;;;;5113457;28;20020;-63
2021/05/12 10:25:17;;;;;;;6.80;6.10;;;;;;;;;;5114015;28;20019;-63
2021/05/12 10:27:43;;;;;;;6.40;5.80;;;;;;;;;;5110412;28;20043;-63
2021/05/12 10:30:09;;;;;;;5.00;4.13;;;;;;;;;;5112574;28;20480;-63
2021/05/12 10:32:35;;;;;;;4.82;4.40;;;;;;;;;;5106810;28;20099;-63
2021/05/12 10:35:10;;;;;;;4.47;3.45;;;;;;;;;;5106695;28;20027;-63
2021/05/12 10:37:39;;;;;;;4.20;3.80;;;;;;;;;;5100101;28;20028;-63
2021/05/12 10:40:05;;;;;;;8.25;7.38;;;;;;;;;;5093739;28;20024;-63
2021/05/12 10:43:03;;;;;;;10.95;9.13;;;;;;;;;;5092877;28;20126;-63
2021/05/12 10:45:36;;;;;;;6.35;5.35;;;;;;;;;;5096020;28;20047;-63
2021/05/12 10:48:01;;;;;;;8.77;7.88;;;;;;;;;;5092399;28;20031;-63
2021/05/12 10:50:43;;;;;;;7.43;6.72;;;;;;;;;;5111963;28;20386;-63
2021/05/12 10:53:19;;;;;;;8.38;7.68;;;;;;;;;;5102501;28;20016;-63
2021/05/12 10:56:00;;;;;;;8.50;7.70;;;;;;;;;;5100899;28;20015;-63
2021/05/12 10:58:26;;;;;;;9.23;8.38;;;;;;;;;;5111712;28;20015;-63
2021/05/12 11:00:54;;;;;;;9.13;7.85;;;;;;;;;;5097072;28;20023;-63
2021/05/12 11:03:20;;;;;;;8.82;7.93;;;;;;;;;;5091415;28;20027;-63
2021/05/12 11:05:51;;;;;;;11.15;8.63;;;;;;;;;;5095159;28;20008;-63
2021/05/12 11:08:17;;;;;;;9.90;8.90;;;;;;;;;;5106138;28;20016;-63
2021/05/12 11:10:52;;;;;;;10.63;9.60;;;;;;;;;;5110727;28;20106;-63
2021/05/12 11:13:22;;;;;;;14.15;12.48;;;;;;;;;;5113064;28;20020;-63
2021/05/12 11:15:54;;;;;;;15.80;13.38;;;;;;;;;;5100409;28;20421;-63
2021/05/12 11:18:34;;;;;;;14.40;12.43;;;;;;;;;;5112138;28;20032;-64
2021/05/12 11:21:39;;;;;;;13.85;12.40;;;;;;;;;;5095726;28;20016;-64
2021/05/12 11:24:08;;;;;;;12.75;11.40;;;;;;;;;;5094972;28;20012;-63
2021/05/12 11:31:09;;;;;;;12.93;11.05;;;;;;;;;;5110367;28;20063;-63
2021/05/12 11:31:57;;;;;;;11.07;9.90;;;;;;;;;;5111297;28;20019;-63
2021/05/12 11:34:23;;;;;;;11.10;10.00;;;;;;;;;;5094367;28;20032;-63
2021/05/12 11:36:48;;;;;;;11.40;10.23;;;;;;;;;;5094514;28;20023;-63
2021/05/12 11:39:13;;;;;;;14.77;10.65;;;;;;;;;;5109321;28;20070;-63
2021/05/12 11:41:39;;;;;;;11.95;10.73;;;;;;;;;;5090433;28;20486;-63
2021/05/12 11:44:05;;;;;;;11.10;10.00;;;;;;;;;;5095714;28;20049;-63
2021/05/12 11:46:39;;;;;;;11.73;9.85;;;;;;;;;;5096853;28;20058;-63
2021/05/12 11:49:09;;;;;;;11.52;10.43;;;;;;;;;;5105437;28;20084;-62
2021/05/12 11:51:35;;;;;;;10.65;9.60;;;;;;;;;;5103789;28;20061;-63
2021/05/12 11:54:00;;;;;;;11.15;9.80;;;;;;;;;;5101935;28;20641;-63
2021/05/12 11:56:26;;;;;;;12.77;11.20;;;;;;;;;;5098126;28;20042;-63
2021/05/12 11:58:55;;;;;;;13.20;11.45;;;;;;;;;;5105705;28;20066;-63
2021/05/12 12:01:21;;;;;;;12.77;10.88;;;;;;;;;;5107215;28;20016;-63
2021/05/12 12:03:56;;;;;;;13.13;10.93;;;;;;;;;;5092373;28;20072;-63
2021/05/12 12:06:21;;;;;;;11.63;10.45;;;;;;;;;;5099646;28;20016;-63
2021/05/12 12:08:46;;;;;;;11.07;10.00;;;;;;;;;;5101486;28;20031;-63
2021/05/12 12:11:13;;;;;;;11.73;10.13;;;;;;;;;;5110946;28;20024;-63
2021/05/12 12:13:43;;;;;;;10.80;9.38;;;;;;;;;;5110674;28;20090;-63
2021/05/12 12:16:12;;;;;;;9.38;8.48;;;;;;;;;;5107523;28;20026;-63
2021/05/12 12:18:39;;;;;;;12.07;9.38;;;;;;;;;;5093602;28;20024;-63
2021/05/12 12:21:05;;;;;;;9.43;7.88;;;;;;;;;;5100442;28;20026;-61
2021/05/12 12:23:32;;;;;;;9.18;8.25;;;;;;;;;;5106598;28;20020;-62
2021/05/12 12:26:09;;;;;;;9.43;8.27;;;;;;;;;;5091038;28;20391;-62
2021/05/12 12:28:34;;;;;;;8.07;7.28;;;;;;;;;;5093404;28;20019;-62
2021/05/12 12:31:00;;;;;;;9.23;8.23;;;;;;;;;;5094050;28;20055;-62
2021/05/12 12:33:25;;;;;;;9.05;8.15;;;;;;;;;;5105935;28;20098;-62
2021/05/12 12:36:03;;;;;;;8.30;7.50;;;;;;;;;;5099680;28;20080;-62
2021/05/12 12:38:31;;;;;;;8.50;7.50;;;;;;;;;;5107996;28;20027;-62
2021/05/12 12:40:56;;;;;;;7.53;6.75;;;;;;;;;;5095542;28;20031;-62
2021/05/12 12:43:22;;;;;;;9.02;8.15;;;;;;;;;;5107599;28;20023;-62
2021/05/12 12:45:47;;;;;;;9.23;8.27;;;;;;;;;;5105397;28;20103;-62
2021/05/12 12:48:12;;;;;;;8.95;8.05;;;;;;;;;;5108362;28;20020;-64
2021/05/12 12:50:37;;;;;;;9.55;8.55;;;;;;;;;;5102754;28;20027;-64
2021/05/12 12:53:05;;;;;;;10.82;9.73;;;;;;;;;;5097322;28;20012;-64
2021/05/12 12:55:31;;;;;;;11.10;9.88;;;;;;;;;;5094442;28;20012;-66
2021/05/12 12:57:57;;;;;;;11.05;9.90;;;;;;;;;;5103501;28;20049;-64
2021/05/12 13:00:25;;;;;;;10.75;9.65;;;;;;;;;;5104056;28;20032;-65
2021/05/12 13:02:54;;;;;;;10.25;8.10;;;;;;;;;;5100780;28;20043;-65
2021/05/12 13:05:20;;;;;;;10.02;9.02;;;;;;;;;;5101327;28;20363;-66
2021/05/12 13:07:46;;;;;;;10.25;9.25;;;;;;;;;;5094914;28;20092;-64
2021/05/12 13:10:24;;;;;;;10.13;9.13;;;;;;;;;;5097121;28;20106;-63
2021/05/12 13:12:50;;;;;;;10.18;8.30;;;;;;;;;;5096792;28;20032;-64
2021/05/12 13:15:19;;;;;;;8.30;7.50;;;;;;;;;;5097376;28;20085;-63
2021/05/12 13:17:51;;;;;;;8.30;7.50;;;;;;;;;;5091410;28;20020;-64
2021/05/12 13:20:20;;;;;;;8.90;8.07;;;;;;;;;;5095572;28;20027;-64
2021/05/12 13:22:58;;;;;;;9.20;8.05;;;;;;;;;;5090812;28;20458;-65
2021/05/12 13:25:23;;;;;;;9.02;8.13;;;;;;;;;;5104086;28;20023;-65
2021/05/12 13:27:48;;;;;;;8.85;8.00;;;;;;;;;;5102312;28;20517;-64
2021/05/12 13:30:14;;;;;;;8.68;7.78;;;;;;;;;;5107785;28;20462;-64
2021/05/12 13:32:39;;;;;;;8.75;7.95;;;;;;;;;;5100597;28;20020;-60
2021/05/12 13:35:04;;;;;;;8.43;7.63;;;;;;;;;;5111074;28;20463;-63
2021/05/12 13:37:30;;;;;;;7.20;6.50;;;;;;;;;;5093187;28;20055;-63
2021/05/12 13:39:55;;;;;;;8.88;7.97;;;;;;;;;;5098818;28;20495;-62
2021/05/12 13:42:20;;;;;;;8.48;7.60;;;;;;;;;;5096049;28;20016;-62
2021/05/12 13:44:45;;;;;;;8.63;7.72;;;;;;;;;;5102816;28;20019;-66
2021/05/12 13:47:10;;;;;;;9.10;8.20;;;;;;;;;;5109061;28;20025;-63
2021/05/12 13:49:36;;;;;;;8.07;7.28;;;;;;;;;;5106473;28;20077;-70
2021/05/12 13:52:05;;;;;;;8.27;7.47;;;;;;;;;;5108122;28;20044;-63
2021/05/12 13:54:41;;;;;;;7.40;6.70;;;;;;;;;;5106171;28;20501;-63
2021/05/12 13:57:18;;;;;;;8.38;6.97;;;;;;;;;;5108796;28;20416;-62
2021/05/12 14:04:58;;;;;;;8.80;7.90;;;;;;;;;;5111080;28;20123;-65
2021/05/12 14:07:23;;;;;;;8.07;6.95;;;;;;;;;;5110243;28;20130;-62
2021/05/12 14:09:50;;;;;;;8.30;7.32;;;;;;;;;;5113245;28;20522;-64
2021/05/12 14:12:19;;;;;;;4.63;4.15;;;;;;;;;;5106873;28;20098;-64
2021/05/12 14:15:01;;;;;;;4.45;4.05;;;;;;;;;;5096214;28;20458;-68
2021/05/12 14:17:27;;;;;;;4.78;4.38;;;;;;;;;;5105482;28;20416;-65
2021/05/12 14:19:53;;;;;;;5.07;4.57;;;;;;;;;;5112799;28;20470;-64
2021/05/12 14:22:18;;;;;;;4.22;3.83;;;;;;;;;;5113642;28;20026;-61
2021/05/12 14:24:44;;;;;;;6.63;4.57;;;;;;;;;;5099162;28;20028;-64
2021/05/12 14:27:09;;;;;;;6.60;5.65;;;;;;;;;;5097789;28;20517;-63
2021/05/12 14:29:40;;;;;;;7.75;6.68;;;;;;;;;;5111315;28;20062;-63
2021/05/12 14:32:06;;;;;;;6.18;5.55;;;;;;;;;;5103311;28;20118;-62
2021/05/12 14:34:32;;;;;;;5.45;4.90;;;;;;;;;;5109961;28;20099;-63
2021/05/12 14:36:58;;;;;;;6.13;4.75;;;;;;;;;;5099172;28;20046;-63